sensor_id;sensor_type;location;lat;lon;timestamp;pressure;altitude;pressure_sealevel;temperature;humidity
61484;BME280;47349;55.640;37.692;2023-04-08T00:00:31;100336.78;;;5.20;47.55
61484;BME280;47349;55.640;37.692;2023-04-08T00:02:58;100335.59;;;5.12;47.84
61484;BME280;47349;55.640;37.692;2023-04-08T00:05:25;100340.91;;;5.12;48.45
61484;BME280;47349;55.640;37.692;2023-04-08T00:07:52;100331.38;;;5.10;48.44
61484;BME280;47349;55.640;37.692;2023-04-08T00:10:19;100341.16;;;5.09;47.93
61484;BME280;47349;55.640;37.692;2023-04-08T00:12:47;100338.38;;;5.11;48.35
61484;BME280;47349;55.640;37.692;2023-04-08T00:15:13;100342.00;;;5.10;47.88
61484;BME280;47349;55.640;37.692;2023-04-08T00:17:41;100343.13;;;4.96;48.11
61484;BME280;47349;55.640;37.692;2023-04-08T00:20:08;100339.38;;;4.99;48.57
61484;BME280;47349;55.640;37.692;2023-04-08T00:22:36;100339.00;;;4.92;47.92
61484;BME280;47349;55.640;37.692;2023-04-08T00:25:03;100335.53;;;4.80;48.31
61484;BME280;47349;55.640;37.692;2023-04-08T00:27:32;100333.72;;;4.81;49.06
61484;BME280;47349;55.640;37.692;2023-04-08T00:30:00;100338.66;;;4.85;48.75
61484;BME280;47349;55.640;37.692;2023-04-08T00:32:27;100334.06;;;4.87;49.43
61484;BME280;47349;55.640;37.692;2023-04-08T00:34:55;100344.59;;;4.89;49.63
61484;BME280;47349;55.640;37.692;2023-04-08T00:37:22;100337.34;;;4.80;49.66
61484;BME280;47349;55.640;37.692;2023-04-08T00:39:50;100333.97;;;4.78;49.62
61484;BME280;47349;55.640;37.692;2023-04-08T00:42:19;100340.84;;;4.80;49.93
61484;BME280;47349;55.640;37.692;2023-04-08T00:44:49;100343.28;;;4.72;49.78
61484;BME280;47349;55.640;37.692;2023-04-08T00:47:17;100336.78;;;4.65;49.94
61484;BME280;47349;55.640;37.692;2023-04-08T00:49:45;100341.25;;;4.64;50.36
61484;BME280;47349;55.640;37.692;2023-04-08T00:52:12;100334.22;;;4.63;50.81
61484;BME280;47349;55.640;37.692;2023-04-08T00:54:40;100341.13;;;4.55;50.74
61484;BME280;47349;55.640;37.692;2023-04-08T00:57:07;100343.41;;;4.59;50.91
61484;BME280;47349;55.640;37.692;2023-04-08T00:59:35;100345.56;;;4.66;50.83
61484;BME280;47349;55.640;37.692;2023-04-08T01:02:11;100343.16;;;4.62;50.94
61484;BME280;47349;55.640;37.692;2023-04-08T01:05:02;100318.91;;;4.45;51.43
61484;BME280;47349;55.640;37.692;2023-04-08T01:07:37;100344.13;;;4.61;50.77
61484;BME280;47349;55.640;37.692;2023-04-08T01:10:25;100347.00;;;4.58;50.60
61484;BME280;47349;55.640;37.692;2023-04-08T01:12:55;100349.69;;;4.47;50.95
61484;BME280;47349;55.640;37.692;2023-04-08T01:15:25;100336.91;;;4.41;51.35
61484;BME280;47349;55.640;37.692;2023-04-08T01:17:54;100351.13;;;4.51;51.00
61484;BME280;47349;55.640;37.692;2023-04-08T01:20:24;100341.59;;;4.49;51.33
61484;BME280;47349;55.640;37.692;2023-04-08T01:25:37;100340.50;;;4.51;51.30
61484;BME280;47349;55.640;37.692;2023-04-08T01:28:10;100355.47;;;4.52;50.76
61484;BME280;47349;55.640;37.692;2023-04-08T01:30:39;100340.75;;;4.48;51.90
61484;BME280;47349;55.640;37.692;2023-04-08T01:33:09;100350.41;;;4.38;51.45
61484;BME280;47349;55.640;37.692;2023-04-08T01:35:38;100345.44;;;4.33;52.00
61484;BME280;47349;55.640;37.692;2023-04-08T01:38:12;100353.06;;;4.27;52.37
61484;BME280;47349;55.640;37.692;2023-04-08T01:40:41;100351.59;;;4.23;52.31
61484;BME280;47349;55.640;37.692;2023-04-08T01:43:10;100349.91;;;4.22;52.77
61484;BME280;47349;55.640;37.692;2023-04-08T01:45:39;100346.28;;;4.11;52.73
61484;BME280;47349;55.640;37.692;2023-04-08T01:48:05;100349.84;;;3.99;53.45
61484;BME280;47349;55.640;37.692;2023-04-08T01:50:33;100347.41;;;3.85;53.95
61484;BME280;47349;55.640;37.692;2023-04-08T01:53:01;100345.09;;;3.80;54.48
61484;BME280;47349;55.640;37.692;2023-04-08T01:55:33;100340.16;;;3.76;54.66
61484;BME280;47349;55.640;37.692;2023-04-08T01:58:01;100351.03;;;3.84;53.94
61484;BME280;47349;55.640;37.692;2023-04-08T02:00:33;100349.09;;;3.86;54.13
61484;BME280;47349;55.640;37.692;2023-04-08T02:03:02;100363.81;;;3.90;53.96
61484;BME280;47349;55.640;37.692;2023-04-08T02:05:50;100361.91;;;3.92;54.04
61484;BME280;47349;55.640;37.692;2023-04-08T02:08:17;100351.66;;;3.88;54.40
61484;BME280;47349;55.640;37.692;2023-04-08T02:10:44;100338.81;;;3.70;54.53
61484;BME280;47349;55.640;37.692;2023-04-08T02:13:11;100344.13;;;3.70;54.32
61484;BME280;47349;55.640;37.692;2023-04-08T02:15:41;100344.19;;;3.57;54.60
61484;BME280;47349;55.640;37.692;2023-04-08T02:18:21;100351.91;;;3.60;54.12
61484;BME280;47349;55.640;37.692;2023-04-08T02:21:03;100357.00;;;3.64;55.25
61484;BME280;47349;55.640;37.692;2023-04-08T02:23:37;100346.50;;;3.62;54.34
61484;BME280;47349;55.640;37.692;2023-04-08T02:26:12;100347.00;;;3.67;54.77
61484;BME280;47349;55.640;37.692;2023-04-08T02:28:41;100340.50;;;3.71;54.41
61484;BME280;47349;55.640;37.692;2023-04-08T02:31:11;100354.84;;;3.69;54.59
61484;BME280;47349;55.640;37.692;2023-04-08T02:33:44;100356.03;;;3.65;54.21
61484;BME280;47349;55.640;37.692;2023-04-08T02:36:14;100354.78;;;3.57;54.16
61484;BME280;47349;55.640;37.692;2023-04-08T02:38:41;100342.25;;;3.48;54.58
61484;BME280;47349;55.640;37.692;2023-04-08T02:41:08;100357.91;;;3.51;54.84
61484;BME280;47349;55.640;37.692;2023-04-08T02:43:35;100367.16;;;3.46;54.82
61484;BME280;47349;55.640;37.692;2023-04-08T02:46:05;100339.16;;;3.30;55.13
61484;BME280;47349;55.640;37.692;2023-04-08T02:48:35;100365.06;;;3.38;55.37
61484;BME280;47349;55.640;37.692;2023-04-08T02:51:02;100364.97;;;3.40;55.42
61484;BME280;47349;55.640;37.692;2023-04-08T02:53:29;100364.13;;;3.39;55.53
61484;BME280;47349;55.640;37.692;2023-04-08T02:55:56;100348.16;;;3.28;55.15
61484;BME280;47349;55.640;37.692;2023-04-08T02:58:23;100362.19;;;3.41;56.39
61484;BME280;47349;55.640;37.692;2023-04-08T03:00:50;100354.03;;;3.44;55.93
61484;BME280;47349;55.640;37.692;2023-04-08T03:03:17;100366.34;;;3.56;55.92
61484;BME280;47349;55.640;37.692;2023-04-08T03:05:44;100365.88;;;3.63;55.30
61484;BME280;47349;55.640;37.692;2023-04-08T03:08:11;100360.72;;;3.61;55.15
61484;BME280;47349;55.640;37.692;2023-04-08T03:10:38;100369.00;;;3.56;55.03
61484;BME280;47349;55.640;37.692;2023-04-08T03:13:05;100362.72;;;3.57;55.15
61484;BME280;47349;55.640;37.692;2023-04-08T03:15:32;100358.19;;;3.59;55.44
61484;BME280;47349;55.640;37.692;2023-04-08T03:17:59;100360.16;;;3.69;55.30
61484;BME280;47349;55.640;37.692;2023-04-08T03:20:26;100351.00;;;3.73;55.12
61484;BME280;47349;55.640;37.692;2023-04-08T03:22:53;100366.50;;;3.66;56.36
61484;BME280;47349;55.640;37.692;2023-04-08T03:25:20;100359.81;;;3.49;56.66
61484;BME280;47349;55.640;37.692;2023-04-08T03:27:47;100366.09;;;3.48;55.76
61484;BME280;47349;55.640;37.692;2023-04-08T03:30:14;100375.31;;;3.43;56.16
61484;BME280;47349;55.640;37.692;2023-04-08T03:32:41;100379.91;;;3.41;56.90
61484;BME280;47349;55.640;37.692;2023-04-08T03:35:09;100390.44;;;3.53;57.11
61484;BME280;47349;55.640;37.692;2023-04-08T03:37:36;100373.75;;;3.64;57.53
61484;BME280;47349;55.640;37.692;2023-04-08T03:40:03;100372.09;;;3.74;56.97
61484;BME280;47349;55.640;37.692;2023-04-08T03:42:30;100375.88;;;3.83;57.03
61484;BME280;47349;55.640;37.692;2023-04-08T03:44:57;100357.31;;;3.83;56.88
61484;BME280;47349;55.640;37.692;2023-04-08T03:47:25;100367.66;;;3.86;56.67
61484;BME280;47349;55.640;37.692;2023-04-08T03:49:52;100377.75;;;3.81;56.55
61484;BME280;47349;55.640;37.692;2023-04-08T03:52:20;100377.53;;;3.73;56.63
61484;BME280;47349;55.640;37.692;2023-04-08T03:54:47;100374.53;;;3.77;57.22
61484;BME280;47349;55.640;37.692;2023-04-08T03:57:15;100381.81;;;3.98;57.13
61484;BME280;47349;55.640;37.692;2023-04-08T03:59:42;100385.66;;;4.05;56.32
61484;BME280;47349;55.640;37.692;2023-04-08T04:02:09;100382.44;;;4.12;56.14
61484;BME280;47349;55.640;37.692;2023-04-08T04:04:36;100380.28;;;4.18;56.91
61484;BME280;47349;55.640;37.692;2023-04-08T04:07:03;100378.34;;;4.20;56.31
61484;BME280;47349;55.640;37.692;2023-04-08T04:09:30;100377.91;;;4.26;55.66
61484;BME280;47349;55.640;37.692;2023-04-08T04:11:57;100384.53;;;4.31;54.92
61484;BME280;47349;55.640;37.692;2023-04-08T04:14:23;100387.41;;;4.28;55.28
61484;BME280;47349;55.640;37.692;2023-04-08T04:16:51;100384.50;;;4.20;54.89
61484;BME280;47349;55.640;37.692;2023-04-08T04:19:18;100388.03;;;4.21;55.21
61484;BME280;47349;55.640;37.692;2023-04-08T04:21:45;100385.13;;;4.24;55.39
61484;BME280;47349;55.640;37.692;2023-04-08T04:24:13;100387.78;;;4.35;55.26
61484;BME280;47349;55.640;37.692;2023-04-08T04:26:40;100387.41;;;4.39;54.77
61484;BME280;47349;55.640;37.692;2023-04-08T04:29:07;100394.66;;;4.49;55.00
61484;BME280;47349;55.640;37.692;2023-04-08T04:31:34;100389.75;;;4.55;54.98
61484;BME280;47349;55.640;37.692;2023-04-08T04:34:19;100382.72;;;4.54;54.14
61484;BME280;47349;55.640;37.692;2023-04-08T04:36:52;100378.41;;;4.64;54.72
61484;BME280;47349;55.640;37.692;2023-04-08T04:39:29;100390.22;;;4.60;54.64
61484;BME280;47349;55.640;37.692;2023-04-08T04:42:01;100394.09;;;4.68;54.27
61484;BME280;47349;55.640;37.692;2023-04-08T04:44:44;100397.97;;;4.75;54.49
61484;BME280;47349;55.640;37.692;2023-04-08T04:47:31;100391.19;;;4.71;54.60
61484;BME280;47349;55.640;37.692;2023-04-08T04:50:08;100383.72;;;4.76;55.00
61484;BME280;47349;55.640;37.692;2023-04-08T04:52:50;100401.22;;;4.89;54.28
61484;BME280;47349;55.640;37.692;2023-04-08T05:06:12;100399.72;;;5.19;53.80
61484;BME280;47349;55.640;37.692;2023-04-08T05:08:58;100400.91;;;5.26;53.63
61484;BME280;47349;55.640;37.692;2023-04-08T05:11:44;100406.69;;;5.31;53.42
61484;BME280;47349;55.640;37.692;2023-04-08T05:14:33;100385.69;;;5.28;52.92
61484;BME280;47349;55.640;37.692;2023-04-08T05:17:16;100399.59;;;5.32;52.44
61484;BME280;47349;55.640;37.692;2023-04-08T05:19:49;100403.41;;;5.39;52.89
61484;BME280;47349;55.640;37.692;2023-04-08T05:22:41;100407.66;;;5.41;52.80
61484;BME280;47349;55.640;37.692;2023-04-08T05:25:29;100407.94;;;5.59;52.69
61484;BME280;47349;55.640;37.692;2023-04-08T05:28:18;100415.31;;;5.67;52.52
61484;BME280;47349;55.640;37.692;2023-04-08T05:31:07;100419.28;;;5.73;52.27
61484;BME280;47349;55.640;37.692;2023-04-08T05:33:51;100411.75;;;5.78;52.41
61484;BME280;47349;55.640;37.692;2023-04-08T05:36:37;100414.56;;;5.76;52.47
61484;BME280;47349;55.640;37.692;2023-04-08T05:39:27;100419.72;;;5.78;52.55
61484;BME280;47349;55.640;37.692;2023-04-08T05:42:14;100422.16;;;5.81;52.55
61484;BME280;47349;55.640;37.692;2023-04-08T05:45:06;100418.50;;;5.82;52.69
61484;BME280;47349;55.640;37.692;2023-04-08T05:48:02;100415.69;;;5.62;52.47
61484;BME280;47349;55.640;37.692;2023-04-08T05:50:50;100425.88;;;5.46;53.26
61484;BME280;47349;55.640;37.692;2023-04-08T05:53:28;100426.59;;;5.48;52.42
61484;BME280;47349;55.640;37.692;2023-04-08T05:56:09;100431.28;;;5.56;53.55
61484;BME280;47349;55.640;37.692;2023-04-08T05:58:56;100422.78;;;5.73;52.73
61484;BME280;47349;55.640;37.692;2023-04-08T06:01:53;100423.22;;;5.78;52.83
61484;BME280;47349;55.640;37.692;2023-04-08T06:04:38;100419.81;;;5.87;52.44
61484;BME280;47349;55.640;37.692;2023-04-08T06:07:21;100425.97;;;5.88;53.10
61484;BME280;47349;55.640;37.692;2023-04-08T06:10:07;100418.84;;;5.88;52.13
61484;BME280;47349;55.640;37.692;2023-04-08T06:12:49;100419.31;;;5.93;52.44
61484;BME280;47349;55.640;37.692;2023-04-08T06:15:32;100396.34;;;5.92;52.08
61484;BME280;47349;55.640;37.692;2023-04-08T06:18:06;100413.25;;;6.24;52.41
61484;BME280;47349;55.640;37.692;2023-04-08T06:20:50;100411.25;;;6.16;51.58
61484;BME280;47349;55.640;37.692;2023-04-08T06:23:33;100409.56;;;6.15;51.41
61484;BME280;47349;55.640;37.692;2023-04-08T06:26:12;100409.09;;;6.10;51.97
61484;BME280;47349;55.640;37.692;2023-04-08T06:29:02;100422.56;;;6.29;51.82
61484;BME280;47349;55.640;37.692;2023-04-08T06:31:48;100420.25;;;6.46;50.97
61484;BME280;47349;55.640;37.692;2023-04-08T06:34:57;100423.41;;;6.60;51.02
61484;BME280;47349;55.640;37.692;2023-04-08T06:37:58;100421.66;;;6.70;51.09
61484;BME280;47349;55.640;37.692;2023-04-08T06:40:40;100419.75;;;6.82;50.83
61484;BME280;47349;55.640;37.692;2023-04-08T06:43:22;100417.00;;;6.93;50.74
61484;BME280;47349;55.640;37.692;2023-04-08T06:46:07;100411.28;;;7.08;50.21
61484;BME280;47349;55.640;37.692;2023-04-08T06:48:50;100412.81;;;7.10;49.89
61484;BME280;47349;55.640;37.692;2023-04-08T06:51:53;100422.25;;;7.14;50.57
61484;BME280;47349;55.640;37.692;2023-04-08T06:54:38;100423.25;;;7.23;49.98
61484;BME280;47349;55.640;37.692;2023-04-08T06:57:26;100410.94;;;7.32;49.98
61484;BME280;47349;55.640;37.692;2023-04-08T07:00:27;100418.66;;;7.44;49.73
61484;BME280;47349;55.640;37.692;2023-04-08T07:03:16;100424.31;;;7.51;49.68
61484;BME280;47349;55.640;37.692;2023-04-08T07:06:00;100417.16;;;7.61;50.04
61484;BME280;47349;55.640;37.692;2023-04-08T07:09:02;100418.69;;;7.73;49.73
61484;BME280;47349;55.640;37.692;2023-04-08T07:11:55;100412.94;;;7.88;49.38
61484;BME280;47349;55.640;37.692;2023-04-08T07:14:41;100405.66;;;7.99;49.39
61484;BME280;47349;55.640;37.692;2023-04-08T07:17:26;100407.19;;;8.02;48.67
61484;BME280;47349;55.640;37.692;2023-04-08T07:20:15;100416.31;;;8.19;48.41
61484;BME280;47349;55.640;37.692;2023-04-08T07:22:47;100395.22;;;8.16;48.99
61484;BME280;47349;55.640;37.692;2023-04-08T07:25:50;100409.28;;;8.28;48.56
61484;BME280;47349;55.640;37.692;2023-04-08T07:28:33;100412.06;;;8.36;48.59
61484;BME280;47349;55.640;37.692;2023-04-08T07:31:18;100402.13;;;8.38;48.38
61484;BME280;47349;55.640;37.692;2023-04-08T07:34:12;100411.78;;;8.58;48.25
61484;BME280;47349;55.640;37.692;2023-04-08T07:37:09;100405.56;;;8.67;48.65
61484;BME280;47349;55.640;37.692;2023-04-08T07:43:04;100398.06;;;8.81;47.49
61484;BME280;47349;55.640;37.692;2023-04-08T07:45:47;100412.63;;;8.96;47.81
61484;BME280;47349;55.640;37.692;2023-04-08T07:48:32;100413.69;;;9.03;47.63
61484;BME280;47349;55.640;37.692;2023-04-08T07:51:19;100413.13;;;9.09;47.88
61484;BME280;47349;55.640;37.692;2023-04-08T07:54:15;100405.34;;;9.16;47.05
61484;BME280;47349;55.640;37.692;2023-04-08T07:57:31;100411.19;;;9.29;47.11
61484;BME280;47349;55.640;37.692;2023-04-08T08:00:18;100409.34;;;9.30;47.21
61484;BME280;47349;55.640;37.692;2023-04-08T08:03:02;100412.25;;;9.36;46.98
61484;BME280;47349;55.640;37.692;2023-04-08T08:05:46;100412.81;;;9.40;47.05
61484;BME280;47349;55.640;37.692;2023-04-08T08:08:17;100409.38;;;9.47;46.62
61484;BME280;47349;55.640;37.692;2023-04-08T08:11:06;100399.97;;;9.61;46.79
61484;BME280;47349;55.640;37.692;2023-04-08T08:13:50;100408.47;;;9.57;46.16
61484;BME280;47349;55.640;37.692;2023-04-08T08:16:40;100404.50;;;9.61;46.41
61484;BME280;47349;55.640;37.692;2023-04-08T08:19:17;100397.78;;;9.74;45.62
61484;BME280;47349;55.640;37.692;2023-04-08T08:22:02;100405.09;;;9.90;45.75
61484;BME280;47349;55.640;37.692;2023-04-08T08:24:44;100396.03;;;10.01;45.08
61484;BME280;47349;55.640;37.692;2023-04-08T08:27:29;100388.38;;;10.06;44.62
61484;BME280;47349;55.640;37.692;2023-04-08T08:30:02;100392.72;;;10.07;45.53
61484;BME280;47349;55.640;37.692;2023-04-08T08:32:45;100385.44;;;10.17;45.16
61484;BME280;47349;55.640;37.692;2023-04-08T08:35:30;100391.88;;;10.24;45.18
61484;BME280;47349;55.640;37.692;2023-04-08T08:38:15;100387.47;;;10.41;44.95
61484;BME280;47349;55.640;37.692;2023-04-08T08:41:00;100378.97;;;10.46;44.29
61484;BME280;47349;55.640;37.692;2023-04-08T08:43:50;100378.97;;;10.46;44.42
61484;BME280;47349;55.640;37.692;2023-04-08T08:46:46;100378.78;;;10.47;43.23
61484;BME280;47349;55.640;37.692;2023-04-08T08:49:39;100371.41;;;10.41;43.24
61484;BME280;47349;55.640;37.692;2023-04-08T08:52:26;100364.47;;;10.31;42.39
61484;BME280;47349;55.640;37.692;2023-04-08T08:55:19;100376.84;;;10.32;42.38
61484;BME280;47349;55.640;37.692;2023-04-08T08:58:02;100367.91;;;10.49;42.40
61484;BME280;47349;55.640;37.692;2023-04-08T09:00:46;100372.78;;;10.53;42.38
61484;BME280;47349;55.640;37.692;2023-04-08T09:03:31;100376.28;;;10.46;41.71
61484;BME280;47349;55.640;37.692;2023-04-08T09:06:17;100369.13;;;10.54;41.88
61484;BME280;47349;55.640;37.692;2023-04-08T09:09:08;100380.16;;;10.51;41.46
61484;BME280;47349;55.640;37.692;2023-04-08T09:12:14;100361.81;;;10.65;41.82
61484;BME280;47349;55.640;37.692;2023-04-08T09:15:22;100367.91;;;10.75;41.26
61484;BME280;47349;55.640;37.692;2023-04-08T09:18:20;100368.22;;;10.72;41.57
61484;BME280;47349;55.640;37.692;2023-04-08T09:21:05;100365.66;;;10.62;41.59
61484;BME280;47349;55.640;37.692;2023-04-08T09:23:51;100377.63;;;10.76;40.72
61484;BME280;47349;55.640;37.692;2023-04-08T09:26:36;100367.78;;;10.85;41.13
61484;BME280;47349;55.640;37.692;2023-04-08T09:29:07;100377.66;;;10.84;40.79
61484;BME280;47349;55.640;37.692;2023-04-08T09:31:59;100364.88;;;10.78;41.00
61484;BME280;47349;55.640;37.692;2023-04-08T09:34:58;100368.50;;;10.95;40.91
61484;BME280;47349;55.640;37.692;2023-04-08T09:37:47;100369.50;;;10.94;41.33
61484;BME280;47349;55.640;37.692;2023-04-08T09:40:39;100361.56;;;10.84;41.75
61484;BME280;47349;55.640;37.692;2023-04-08T09:43:08;100372.84;;;10.96;41.57
61484;BME280;47349;55.640;37.692;2023-04-08T09:45:38;100359.13;;;10.99;40.80
61484;BME280;47349;55.640;37.692;2023-04-08T09:48:11;100370.25;;;11.12;40.36
61484;BME280;47349;55.640;37.692;2023-04-08T09:50:43;100362.19;;;11.20;40.22
61484;BME280;47349;55.640;37.692;2023-04-08T09:53:18;100362.72;;;11.24;40.56
61484;BME280;47349;55.640;37.692;2023-04-08T09:55:50;100360.22;;;11.30;41.00
61484;BME280;47349;55.640;37.692;2023-04-08T09:58:21;100357.69;;;11.29;40.67
61484;BME280;47349;55.640;37.692;2023-04-08T10:00:54;100350.19;;;11.32;41.09
61484;BME280;47349;55.640;37.692;2023-04-08T10:03:39;100355.03;;;11.45;40.41
61484;BME280;47349;55.640;37.692;2023-04-08T10:06:07;100347.31;;;11.34;40.22
61484;BME280;47349;55.640;37.692;2023-04-08T10:08:34;100328.50;;;11.26;41.05
61484;BME280;47349;55.640;37.692;2023-04-08T10:11:02;100346.31;;;11.35;41.55
61484;BME280;47349;55.640;37.692;2023-04-08T10:13:29;100348.84;;;11.45;40.66
61484;BME280;47349;55.640;37.692;2023-04-08T10:16:30;100337.78;;;11.48;40.74
61484;BME280;47349;55.640;37.692;2023-04-08T10:18:57;100344.50;;;11.52;40.46
61484;BME280;47349;55.640;37.692;2023-04-08T10:21:39;100340.81;;;11.53;40.75
61484;BME280;47349;55.640;37.692;2023-04-08T10:24:14;100340.81;;;11.53;41.35
61484;BME280;47349;55.640;37.692;2023-04-08T10:26:46;100327.38;;;11.69;41.48
61484;BME280;47349;55.640;37.692;2023-04-08T10:31:50;100327.09;;;11.89;40.01
61484;BME280;47349;55.640;37.692;2023-04-08T10:34:24;100330.28;;;11.84;39.89
61484;BME280;47349;55.640;37.692;2023-04-08T10:36:54;100322.41;;;11.91;40.21
61484;BME280;47349;55.640;37.692;2023-04-08T10:39:21;100326.09;;;11.90;40.38
61484;BME280;47349;55.640;37.692;2023-04-08T10:41:49;100320.88;;;11.88;39.69
61484;BME280;47349;55.640;37.692;2023-04-08T10:44:18;100308.63;;;11.86;39.23
61484;BME280;47349;55.640;37.692;2023-04-08T10:46:47;100301.56;;;12.01;39.33
61484;BME280;47349;55.640;37.692;2023-04-08T10:49:15;100326.41;;;12.11;39.65
61484;BME280;47349;55.640;37.692;2023-04-08T10:51:48;100314.50;;;12.14;40.00
61484;BME280;47349;55.640;37.692;2023-04-08T10:54:16;100317.31;;;12.20;39.97
61484;BME280;47349;55.640;37.692;2023-04-08T10:56:49;100308.41;;;12.28;39.69
61484;BME280;47349;55.640;37.692;2023-04-08T10:59:26;100305.19;;;12.32;39.84
61484;BME280;47349;55.640;37.692;2023-04-08T11:01:54;100297.81;;;12.26;38.70
61484;BME280;47349;55.640;37.692;2023-04-08T11:04:21;100304.34;;;12.40;38.70
61484;BME280;47349;55.640;37.692;2023-04-08T11:06:51;100302.28;;;12.50;39.05
61484;BME280;47349;55.640;37.692;2023-04-08T11:09:19;100308.47;;;12.67;38.96
61484;BME280;47349;55.640;37.692;2023-04-08T11:11:47;100304.56;;;12.78;38.75
61484;BME280;47349;55.640;37.692;2023-04-08T11:14:15;100294.50;;;12.72;38.55
61484;BME280;47349;55.640;37.692;2023-04-08T11:16:45;100275.81;;;12.70;38.50
61484;BME280;47349;55.640;37.692;2023-04-08T11:19:12;100274.16;;;12.69;39.21
61484;BME280;47349;55.640;37.692;2023-04-08T11:21:42;100282.03;;;12.71;39.38
61484;BME280;47349;55.640;37.692;2023-04-08T11:24:10;100288.19;;;12.88;39.41
61484;BME280;47349;55.640;37.692;2023-04-08T11:26:39;100296.22;;;12.96;39.33
61484;BME280;47349;55.640;37.692;2023-04-08T11:29:10;100263.47;;;12.92;38.40
61484;BME280;47349;55.640;37.692;2023-04-08T11:31:41;100293.75;;;13.17;37.47
61484;BME280;47349;55.640;37.692;2023-04-08T11:34:25;100285.78;;;13.32;38.21
61484;BME280;47349;55.640;37.692;2023-04-08T11:36:55;100265.66;;;13.43;38.26
61484;BME280;47349;55.640;37.692;2023-04-08T11:39:24;100281.34;;;13.62;37.88
61484;BME280;47349;55.640;37.692;2023-04-08T11:41:52;100277.50;;;13.79;38.06
61484;BME280;47349;55.640;37.692;2023-04-08T11:44:19;100279.09;;;13.88;37.60
61484;BME280;47349;55.640;37.692;2023-04-08T11:46:52;100287.09;;;14.11;36.62
61484;BME280;47349;55.640;37.692;2023-04-08T11:49:23;100267.59;;;14.09;36.88
61484;BME280;47349;55.640;37.692;2023-04-08T11:51:57;100255.91;;;14.17;36.78
61484;BME280;47349;55.640;37.692;2023-04-08T11:54:29;100271.53;;;14.36;37.08
61484;BME280;47349;55.640;37.692;2023-04-08T11:56:58;100265.97;;;14.53;36.25
61484;BME280;47349;55.640;37.692;2023-04-08T11:59:26;100259.09;;;14.65;36.22
61484;BME280;47349;55.640;37.692;2023-04-08T12:01:55;100253.19;;;14.76;35.05
61484;BME280;47349;55.640;37.692;2023-04-08T12:04:22;100245.97;;;14.62;35.84
61484;BME280;47349;55.640;37.692;2023-04-08T12:06:50;100239.81;;;14.38;37.00
61484;BME280;47349;55.640;37.692;2023-04-08T12:09:18;100259.06;;;14.50;36.73
61484;BME280;47349;55.640;37.692;2023-04-08T12:11:45;100256.09;;;14.75;36.43
61484;BME280;47349;55.640;37.692;2023-04-08T12:14:12;100254.72;;;15.00;36.08
61484;BME280;47349;55.640;37.692;2023-04-08T12:16:40;100247.84;;;14.98;36.16
61484;BME280;47349;55.640;37.692;2023-04-08T12:19:07;100229.59;;;15.21;35.92
61484;BME280;47349;55.640;37.692;2023-04-08T12:21:34;100251.47;;;15.48;35.49
61484;BME280;47349;55.640;37.692;2023-04-08T12:24:01;100223.47;;;15.55;35.50
61484;BME280;47349;55.640;37.692;2023-04-08T12:26:29;100240.34;;;15.79;34.99
61484;BME280;47349;55.640;37.692;2023-04-08T12:28:56;100240.56;;;15.84;35.00
61484;BME280;47349;55.640;37.692;2023-04-08T12:31:25;100229.97;;;15.61;33.81
61484;BME280;47349;55.640;37.692;2023-04-08T12:33:53;100244.41;;;15.68;34.15
61484;BME280;47349;55.640;37.692;2023-04-08T12:36:21;100241.25;;;15.64;34.16
61484;BME280;47349;55.640;37.692;2023-04-08T12:38:48;100240.66;;;15.69;34.00
61484;BME280;47349;55.640;37.692;2023-04-08T12:41:16;100225.75;;;15.73;34.36
61484;BME280;47349;55.640;37.692;2023-04-08T12:43:43;100220.72;;;15.70;34.43
61484;BME280;47349;55.640;37.692;2023-04-08T12:46:11;100234.81;;;15.93;34.12
61484;BME280;47349;55.640;37.692;2023-04-08T12:48:38;100226.13;;;15.98;34.32
61484;BME280;47349;55.640;37.692;2023-04-08T12:51:06;100206.00;;;16.01;33.92
61484;BME280;47349;55.640;37.692;2023-04-08T12:53:36;100213.88;;;16.02;33.89
61484;BME280;47349;55.640;37.692;2023-04-08T12:56:04;100218.16;;;15.90;33.73
61484;BME280;47349;55.640;37.692;2023-04-08T12:58:32;100224.72;;;15.74;34.67
61484;BME280;47349;55.640;37.692;2023-04-08T13:01:01;100212.66;;;15.55;34.35
61484;BME280;47349;55.640;37.692;2023-04-08T13:03:28;100227.53;;;15.66;34.20
61484;BME280;47349;55.640;37.692;2023-04-08T13:06:11;100213.59;;;15.41;34.19
61484;BME280;47349;55.640;37.692;2023-04-08T13:08:39;100213.91;;;15.31;34.94
61484;BME280;47349;55.640;37.692;2023-04-08T13:11:12;100195.16;;;15.23;34.59
61484;BME280;47349;55.640;37.692;2023-04-08T13:13:39;100214.94;;;15.30;34.89
61484;BME280;47349;55.640;37.692;2023-04-08T13:16:07;100201.81;;;15.27;34.83
61484;BME280;47349;55.640;37.692;2023-04-08T13:18:37;100197.53;;;15.11;34.78
61484;BME280;47349;55.640;37.692;2023-04-08T13:21:05;100199.34;;;15.04;35.21
61484;BME280;47349;55.640;37.692;2023-04-08T13:23:33;100191.09;;;14.91;35.13
61484;BME280;47349;55.640;37.692;2023-04-08T13:26:00;100208.94;;;14.92;35.12
61484;BME280;47349;55.640;37.692;2023-04-08T13:28:28;100200.03;;;14.91;35.20
61484;BME280;47349;55.640;37.692;2023-04-08T13:30:55;100201.84;;;14.70;35.59
61484;BME280;47349;55.640;37.692;2023-04-08T13:33:23;100199.44;;;14.60;35.36
61484;BME280;47349;55.640;37.692;2023-04-08T13:35:50;100186.25;;;14.65;35.85
61484;BME280;47349;55.640;37.692;2023-04-08T13:38:21;100177.50;;;14.63;36.31
61484;BME280;47349;55.640;37.692;2023-04-08T13:40:48;100201.41;;;14.87;36.29
61484;BME280;47349;55.640;37.692;2023-04-08T13:43:16;100196.19;;;15.01;35.60
61484;BME280;47349;55.640;37.692;2023-04-08T13:45:43;100190.78;;;15.01;35.42